sensor_id;sensor_type;location;lat;lon;timestamp;temperature;humidity
63445;DHT22;49573;47.682;9.170;2022-12-01T00:02:31;4.40;78.40
63445;DHT22;49573;47.682;9.170;2022-12-01T00:05:17;4.40;77.80
63445;DHT22;49573;47.682;9.170;2022-12-01T00:08:03;4.40;77.00
63445;DHT22;49573;47.682;9.170;2022-12-01T00:10:50;4.40;77.50
63445;DHT22;49573;47.682;9.170;2022-12-01T00:13:36;4.40;77.70
63445;DHT22;49573;47.682;9.170;2022-12-01T00:16:23;4.40;78.00
63445;DHT22;49573;47.682;9.170;2022-12-01T00:19:10;4.40;76.50
63445;DHT22;49573;47.682;9.170;2022-12-01T00:21:56;4.40;77.10
63445;DHT22;49573;47.682;9.170;2022-12-01T00:24:42;4.40;76.80
63445;DHT22;49573;47.682;9.170;2022-12-01T00:27:28;4.40;76.90
63445;DHT22;49573;47.682;9.170;2022-12-01T00:30:15;4.40;76.50
63445;DHT22;49573;47.682;9.170;2022-12-01T00:33:01;4.40;76.70
63445;DHT22;49573;47.682;9.170;2022-12-01T00:35:48;4.40;76.90
63445;DHT22;49573;47.682;9.170;2022-12-01T00:38:35;4.40;77.20
63445;DHT22;49573;47.682;9.170;2022-12-01T00:41:23;4.40;77.70
63445;DHT22;49573;47.682;9.170;2022-12-01T00:44:10;4.40;76.80
63445;DHT22;49573;47.682;9.170;2022-12-01T00:46:56;4.40;77.70
63445;DHT22;49573;47.682;9.170;2022-12-01T00:49:42;4.40;76.80
63445;DHT22;49573;47.682;9.170;2022-12-01T00:52:31;4.40;76.40
63445;DHT22;49573;47.682;9.170;2022-12-01T00:55:17;4.40;77.20
63445;DHT22;49573;47.682;9.170;2022-12-01T00:58:03;4.40;77.20
63445;DHT22;49573;47.682;9.170;2022-12-01T01:00:55;4.40;76.90
63445;DHT22;49573;47.682;9.170;2022-12-01T01:03:42;4.30;76.50
63445;DHT22;49573;47.682;9.170;2022-12-01T01:06:28;4.40;76.80
63445;DHT22;49573;47.682;9.170;2022-12-01T01:09:16;4.40;76.70
63445;DHT22;49573;47.682;9.170;2022-12-01T01:12:02;4.40;76.80
63445;DHT22;49573;47.682;9.170;2022-12-01T01:14:48;4.30;76.70
63445;DHT22;49573;47.682;9.170;2022-12-01T01:17:34;4.30;76.20
63445;DHT22;49573;47.682;9.170;2022-12-01T01:20:20;4.30;76.60
63445;DHT22;49573;47.682;9.170;2022-12-01T01:23:06;4.30;77.00
63445;DHT22;49573;47.682;9.170;2022-12-01T01:26:00;4.30;77.80
63445;DHT22;49573;47.682;9.170;2022-12-01T01:28:47;4.30;77.90
63445;DHT22;49573;47.682;9.170;2022-12-01T01:31:34;4.30;78.10
63445;DHT22;49573;47.682;9.170;2022-12-01T01:34:20;4.30;77.40
63445;DHT22;49573;47.682;9.170;2022-12-01T01:37:06;4.30;77.50
63445;DHT22;49573;47.682;9.170;2022-12-01T01:39:52;4.30;77.80
63445;DHT22;49573;47.682;9.170;2022-12-01T01:42:39;4.20;77.70
63445;DHT22;49573;47.682;9.170;2022-12-01T01:45:28;4.30;77.70
63445;DHT22;49573;47.682;9.170;2022-12-01T01:48:14;4.30;77.90
63445;DHT22;49573;47.682;9.170;2022-12-01T01:51:01;4.30;77.50
63445;DHT22;49573;47.682;9.170;2022-12-01T01:53:48;4.30;77.20
63445;DHT22;49573;47.682;9.170;2022-12-01T01:56:36;4.30;77.30
63445;DHT22;49573;47.682;9.170;2022-12-01T01:59:28;4.20;76.80
63445;DHT22;49573;47.682;9.170;2022-12-01T02:02:15;4.20;76.90
63445;DHT22;49573;47.682;9.170;2022-12-01T02:05:01;4.30;76.70
63445;DHT22;49573;47.682;9.170;2022-12-01T02:07:48;4.30;77.00
63445;DHT22;49573;47.682;9.170;2022-12-01T02:10:43;4.30;76.80
63445;DHT22;49573;47.682;9.170;2022-12-01T02:13:41;4.20;77.30
63445;DHT22;49573;47.682;9.170;2022-12-01T02:16:39;4.30;76.90
63445;DHT22;49573;47.682;9.170;2022-12-01T02:19:42;4.30;76.60
63445;DHT22;49573;47.682;9.170;2022-12-01T02:22:37;4.30;76.90
63445;DHT22;49573;47.682;9.170;2022-12-01T02:25:35;4.20;76.60
63445;DHT22;49573;47.682;9.170;2022-12-01T02:28:44;4.30;76.70
63445;DHT22;49573;47.682;9.170;2022-12-01T02:31:40;4.20;76.70
63445;DHT22;49573;47.682;9.170;2022-12-01T02:34:31;4.20;76.20
63445;DHT22;49573;47.682;9.170;2022-12-01T02:37:22;4.20;76.60
63445;DHT22;49573;47.682;9.170;2022-12-01T02:40:13;4.20;76.10
63445;DHT22;49573;47.682;9.170;2022-12-01T02:43:06;4.20;76.30
63445;DHT22;49573;47.682;9.170;2022-12-01T02:45:57;4.20;76.50
63445;DHT22;49573;47.682;9.170;2022-12-01T02:48:50;4.20;76.80
63445;DHT22;49573;47.682;9.170;2022-12-01T02:51:37;4.20;76.80
63445;DHT22;49573;47.682;9.170;2022-12-01T02:54:25;4.20;76.80
63445;DHT22;49573;47.682;9.170;2022-12-01T02:57:14;4.20;77.10
63445;DHT22;49573;47.682;9.170;2022-12-01T03:00:01;4.20;77.50
63445;DHT22;49573;47.682;9.170;2022-12-01T03:02:59;4.20;77.00
63445;DHT22;49573;47.682;9.170;2022-12-01T03:05:52;4.20;77.10
63445;DHT22;49573;47.682;9.170;2022-12-01T03:08:47;4.20;77.00
63445;DHT22;49573;47.682;9.170;2022-12-01T03:11:43;4.20;77.30
63445;DHT22;49573;47.682;9.170;2022-12-01T03:14:36;4.10;76.30
63445;DHT22;49573;47.682;9.170;2022-12-01T03:17:26;4.10;76.10
63445;DHT22;49573;47.682;9.170;2022-12-01T03:20:16;4.10;76.50
63445;DHT22;49573;47.682;9.170;2022-12-01T03:23:08;4.10;76.40
63445;DHT22;49573;47.682;9.170;2022-12-01T03:25:57;4.00;76.30
63445;DHT22;49573;47.682;9.170;2022-12-01T03:28:47;4.00;76.60
63445;DHT22;49573;47.682;9.170;2022-12-01T03:31:38;4.00;76.30
63445;DHT22;49573;47.682;9.170;2022-12-01T03:34:30;4.00;76.70
63445;DHT22;49573;47.682;9.170;2022-12-01T03:37:23;4.00;76.20
63445;DHT22;49573;47.682;9.170;2022-12-01T03:40:14;4.00;76.10
63445;DHT22;49573;47.682;9.170;2022-12-01T03:43:05;4.00;76.50
63445;DHT22;49573;47.682;9.170;2022-12-01T03:45:55;4.00;76.10
63445;DHT22;49573;47.682;9.170;2022-12-01T03:48:44;4.00;75.40
63445;DHT22;49573;47.682;9.170;2022-12-01T03:51:43;4.00;75.90
63445;DHT22;49573;47.682;9.170;2022-12-01T03:54:41;4.00;76.00
63445;DHT22;49573;47.682;9.170;2022-12-01T03:57:37;4.00;75.50
63445;DHT22;49573;47.682;9.170;2022-12-01T04:00:25;4.00;75.50
63445;DHT22;49573;47.682;9.170;2022-12-01T04:03:16;3.90;75.50
63445;DHT22;49573;47.682;9.170;2022-12-01T04:06:03;3.90;75.30
63445;DHT22;49573;47.682;9.170;2022-12-01T04:08:49;3.80;75.90
63445;DHT22;49573;47.682;9.170;2022-12-01T04:11:35;3.90;76.10
63445;DHT22;49573;47.682;9.170;2022-12-01T04:14:41;3.90;76.10
63445;DHT22;49573;47.682;9.170;2022-12-01T04:17:28;3.90;76.30
63445;DHT22;49573;47.682;9.170;2022-12-01T04:20:15;3.90;76.40
63445;DHT22;49573;47.682;9.170;2022-12-01T04:23:01;4.00;76.00
63445;DHT22;49573;47.682;9.170;2022-12-01T04:25:47;3.90;76.50
63445;DHT22;49573;47.682;9.170;2022-12-01T04:28:33;3.90;76.40
63445;DHT22;49573;47.682;9.170;2022-12-01T04:31:21;3.90;76.40
63445;DHT22;49573;47.682;9.170;2022-12-01T04:34:07;4.00;76.70
63445;DHT22;49573;47.682;9.170;2022-12-01T04:36:54;4.00;77.10
63445;DHT22;49573;47.682;9.170;2022-12-01T04:39:40;3.90;77.10
63445;DHT22;49573;47.682;9.170;2022-12-01T04:42:29;4.00;77.30
63445;DHT22;49573;47.682;9.170;2022-12-01T04:45:15;4.00;77.40
63445;DHT22;49573;47.682;9.170;2022-12-01T04:48:03;4.00;77.00
63445;DHT22;49573;47.682;9.170;2022-12-01T04:50:49;4.00;77.10
63445;DHT22;49573;47.682;9.170;2022-12-01T04:53:35;4.00;77.30
63445;DHT22;49573;47.682;9.170;2022-12-01T04:56:21;4.00;77.10
63445;DHT22;49573;47.682;9.170;2022-12-01T04:59:08;4.00;77.20
63445;DHT22;49573;47.682;9.170;2022-12-01T05:01:54;4.00;77.30
63445;DHT22;49573;47.682;9.170;2022-12-01T05:04:42;4.00;77.30
63445;DHT22;49573;47.682;9.170;2022-12-01T05:07:32;4.00;77.40
63445;DHT22;49573;47.682;9.170;2022-12-01T05:10:18;4.00;77.20
63445;DHT22;49573;47.682;9.170;2022-12-01T05:13:04;4.00;77.70
63445;DHT22;49573;47.682;9.170;2022-12-01T05:15:51;4.00;78.10
63445;DHT22;49573;47.682;9.170;2022-12-01T05:18:37;4.00;77.90
63445;DHT22;49573;47.682;9.170;2022-12-01T05:21:25;4.00;77.60
63445;DHT22;49573;47.682;9.170;2022-12-01T05:24:11;4.00;77.30
63445;DHT22;49573;47.682;9.170;2022-12-01T05:26:58;4.00;77.90
63445;DHT22;49573;47.682;9.170;2022-12-01T05:29:44;4.00;77.70
63445;DHT22;49573;47.682;9.170;2022-12-01T05:32:30;4.00;77.60
63445;DHT22;49573;47.682;9.170;2022-12-01T05:35:16;4.00;77.50
63445;DHT22;49573;47.682;9.170;2022-12-01T05:38:03;4.00;78.00
63445;DHT22;49573;47.682;9.170;2022-12-01T05:40:50;4.00;78.00
63445;DHT22;49573;47.682;9.170;2022-12-01T05:43:37;4.00;77.50
63445;DHT22;49573;47.682;9.170;2022-12-01T05:46:23;4.00;77.80
63445;DHT22;49573;47.682;9.170;2022-12-01T05:49:09;4.00;76.90
63445;DHT22;49573;47.682;9.170;2022-12-01T05:51:55;4.00;77.20
63445;DHT22;49573;47.682;9.170;2022-12-01T05:54:43;3.90;77.50
63445;DHT22;49573;47.682;9.170;2022-12-01T05:57:29;4.00;78.10
63445;DHT22;49573;47.682;9.170;2022-12-01T06:00:17;4.00;77.90
63445;DHT22;49573;47.682;9.170;2022-12-01T06:03:03;4.00;77.90
63445;DHT22;49573;47.682;9.170;2022-12-01T06:05:50;3.90;78.30
63445;DHT22;49573;47.682;9.170;2022-12-01T06:08:36;4.00;78.10
63445;DHT22;49573;47.682;9.170;2022-12-01T06:11:23;4.00;77.70
63445;DHT22;49573;47.682;9.170;2022-12-01T06:14:09;4.00;77.80
63445;DHT22;49573;47.682;9.170;2022-12-01T06:16:55;4.00;77.90
63445;DHT22;49573;47.682;9.170;2022-12-01T06:19:41;4.00;78.60
63445;DHT22;49573;47.682;9.170;2022-12-01T06:22:28;4.00;77.90
63445;DHT22;49573;47.682;9.170;2022-12-01T06:25:14;4.00;78.20
63445;DHT22;49573;47.682;9.170;2022-12-01T06:28:02;4.00;78.10
63445;DHT22;49573;47.682;9.170;2022-12-01T06:30:48;4.00;78.40
63445;DHT22;49573;47.682;9.170;2022-12-01T06:33:34;4.00;78.20
63445;DHT22;49573;47.682;9.170;2022-12-01T06:36:20;4.00;78.30
63445;DHT22;49573;47.682;9.170;2022-12-01T06:39:06;4.00;77.80
63445;DHT22;49573;47.682;9.170;2022-12-01T06:41:55;4.00;77.70
63445;DHT22;49573;47.682;9.170;2022-12-01T06:44:42;4.00;77.80
63445;DHT22;49573;47.682;9.170;2022-12-01T06:47:28;4.00;78.00
63445;DHT22;49573;47.682;9.170;2022-12-01T06:50:15;4.00;78.40
63445;DHT22;49573;47.682;9.170;2022-12-01T06:53:01;4.00;77.80
63445;DHT22;49573;47.682;9.170;2022-12-01T06:55:47;4.00;78.40
63445;DHT22;49573;47.682;9.170;2022-12-01T06:58:33;4.00;78.20
63445;DHT22;49573;47.682;9.170;2022-12-01T07:01:21;4.00;78.40
63445;DHT22;49573;47.682;9.170;2022-12-01T07:04:07;4.00;78.40
63445;DHT22;49573;47.682;9.170;2022-12-01T07:06:53;4.10;78.90
63445;DHT22;49573;47.682;9.170;2022-12-01T07:09:39;4.10;78.70
63445;DHT22;49573;47.682;9.170;2022-12-01T07:12:25;4.10;78.50
63445;DHT22;49573;47.682;9.170;2022-12-01T07:15:11;4.10;78.60
63445;DHT22;49573;47.682;9.170;2022-12-01T07:17:58;4.10;78.60
63445;DHT22;49573;47.682;9.170;2022-12-01T07:20:45;4.10;78.60
63445;DHT22;49573;47.682;9.170;2022-12-01T07:23:31;4.10;78.70
63445;DHT22;49573;47.682;9.170;2022-12-01T07:26:17;4.10;78.40
63445;DHT22;49573;47.682;9.170;2022-12-01T07:29:03;4.10;78.60
63445;DHT22;49573;47.682;9.170;2022-12-01T07:31:49;4.20;78.60
63445;DHT22;49573;47.682;9.170;2022-12-01T07:34:37;4.10;78.70
63445;DHT22;49573;47.682;9.170;2022-12-01T07:37:23;4.20;78.50
63445;DHT22;49573;47.682;9.170;2022-12-01T07:40:10;4.20;78.40
63445;DHT22;49573;47.682;9.170;2022-12-01T07:42:56;4.20;78.50
63445;DHT22;49573;47.682;9.170;2022-12-01T07:45:42;4.20;78.40
63445;DHT22;49573;47.682;9.170;2022-12-01T07:48:29;4.30;78.60
63445;DHT22;49573;47.682;9.170;2022-12-01T07:51:16;4.20;78.70
63445;DHT22;49573;47.682;9.170;2022-12-01T07:54:04;4.30;78.70
63445;DHT22;49573;47.682;9.170;2022-12-01T07:56:51;4.30;78.60
63445;DHT22;49573;47.682;9.170;2022-12-01T07:59:37;4.20;78.60
63445;DHT22;49573;47.682;9.170;2022-12-01T08:02:23;4.30;78.60
63445;DHT22;49573;47.682;9.170;2022-12-01T08:05:09;4.30;78.70
63445;DHT22;49573;47.682;9.170;2022-12-01T08:07:56;4.30;78.60
63445;DHT22;49573;47.682;9.170;2022-12-01T08:10:42;4.30;78.50
63445;DHT22;49573;47.682;9.170;2022-12-01T08:13:29;4.30;78.70
63445;DHT22;49573;47.682;9.170;2022-12-01T08:16:16;4.40;78.30
63445;DHT22;49573;47.682;9.170;2022-12-01T08:19:02;4.40;78.40
63445;DHT22;49573;47.682;9.170;2022-12-01T08:21:48;4.40;78.40
63445;DHT22;49573;47.682;9.170;2022-12-01T08:24:36;4.40;78.60
63445;DHT22;49573;47.682;9.170;2022-12-01T08:27:22;4.50;78.70
63445;DHT22;49573;47.682;9.170;2022-12-01T08:30:09;4.50;78.60
63445;DHT22;49573;47.682;9.170;2022-12-01T08:32:56;4.60;78.30
63445;DHT22;49573;47.682;9.170;2022-12-01T08:35:43;4.60;78.20
63445;DHT22;49573;47.682;9.170;2022-12-01T08:38:29;4.60;78.40
63445;DHT22;49573;47.682;9.170;2022-12-01T08:41:18;4.60;78.50
63445;DHT22;49573;47.682;9.170;2022-12-01T08:44:04;4.70;78.80
63445;DHT22;49573;47.682;9.170;2022-12-01T08:46:50;4.60;78.70
63445;DHT22;49573;47.682;9.170;2022-12-01T08:49:36;4.70;78.40
63445;DHT22;49573;47.682;9.170;2022-12-01T08:52:22;4.80;78.40
63445;DHT22;49573;47.682;9.170;2022-12-01T08:55:08;4.80;78.10
63445;DHT22;49573;47.682;9.170;2022-12-01T08:57:56;4.80;78.10
63445;DHT22;49573;47.682;9.170;2022-12-01T09:00:42;4.90;78.50
63445;DHT22;49573;47.682;9.170;2022-12-01T09:03:29;4.90;78.40
63445;DHT22;49573;47.682;9.170;2022-12-01T09:06:18;4.90;78.00
63445;DHT22;49573;47.682;9.170;2022-12-01T09:09:05;4.90;77.90
63445;DHT22;49573;47.682;9.170;2022-12-01T09:11:52;4.90;77.80
63445;DHT22;49573;47.682;9.170;2022-12-01T09:14:41;4.90;77.40
63445;DHT22;49573;47.682;9.170;2022-12-01T09:17:29;4.90;77.00
63445;DHT22;49573;47.682;9.170;2022-12-01T09:20:15;4.90;77.60
63445;DHT22;49573;47.682;9.170;2022-12-01T09:23:01;5.00;77.60
63445;DHT22;49573;47.682;9.170;2022-12-01T09:25:47;5.00;77.00
63445;DHT22;49573;47.682;9.170;2022-12-01T09:28:33;5.00;76.90
63445;DHT22;49573;47.682;9.170;2022-12-01T09:31:21;4.90;76.70
63445;DHT22;49573;47.682;9.170;2022-12-01T09:34:13;4.90;76.70
63445;DHT22;49573;47.682;9.170;2022-12-01T09:36:59;4.90;76.20
63445;DHT22;49573;47.682;9.170;2022-12-01T09:39:45;5.00;76.60
63445;DHT22;49573;47.682;9.170;2022-12-01T09:42:32;5.00;76.80
63445;DHT22;49573;47.682;9.170;2022-12-01T09:45:24;5.00;76.80
63445;DHT22;49573;47.682;9.170;2022-12-01T09:48:23;5.00;77.00
63445;DHT22;49573;47.682;9.170;2022-12-01T09:51:12;5.10;76.40
63445;DHT22;49573;47.682;9.170;2022-12-01T09:54:00;5.10;76.90
63445;DHT22;49573;47.682;9.170;2022-12-01T09:56:47;5.10;76.50
63445;DHT22;49573;47.682;9.170;2022-12-01T09:59:38;5.00;76.40
63445;DHT22;49573;47.682;9.170;2022-12-01T10:02:30;5.10;76.60
63445;DHT22;49573;47.682;9.170;2022-12-01T10:05:20;5.00;76.30
63445;DHT22;49573;47.682;9.170;2022-12-01T10:08:10;5.10;76.60
63445;DHT22;49573;47.682;9.170;2022-12-01T10:11:03;5.10;77.00
63445;DHT22;49573;47.682;9.170;2022-12-01T10:13:50;5.10;76.90
63445;DHT22;49573;47.682;9.170;2022-12-01T10:16:42;5.10;76.20
63445;DHT22;49573;47.682;9.170;2022-12-01T10:19:35;5.10;76.10
63445;DHT22;49573;47.682;9.170;2022-12-01T10:25:45;5.10;75.90
63445;DHT22;49573;47.682;9.170;2022-12-01T10:28:52;5.20;76.20
63445;DHT22;49573;47.682;9.170;2022-12-01T10:31:48;5.20;76.00
63445;DHT22;49573;47.682;9.170;2022-12-01T10:34:37;5.20;75.30
63445;DHT22;49573;47.682;9.170;2022-12-01T10:37:28;5.20;75.50
63445;DHT22;49573;47.682;9.170;2022-12-01T10:40:16;5.20;75.50
63445;DHT22;49573;47.682;9.170;2022-12-01T10:43:02;5.20;75.30
63445;DHT22;49573;47.682;9.170;2022-12-01T10:45:48;5.30;75.60
63445;DHT22;49573;47.682;9.170;2022-12-01T10:48:51;5.30;75.60
63445;DHT22;49573;47.682;9.170;2022-12-01T10:51:49;5.30;75.20
63445;DHT22;49573;47.682;9.170;2022-12-01T10:54:39;5.30;75.30
63445;DHT22;49573;47.682;9.170;2022-12-01T10:57:26;5.30;75.30
63445;DHT22;49573;47.682;9.170;2022-12-01T11:00:20;5.30;75.60
63445;DHT22;49573;47.682;9.170;2022-12-01T11:03:17;5.30;75.40
63445;DHT22;49573;47.682;9.170;2022-12-01T11:06:05;5.30;74.90
63445;DHT22;49573;47.682;9.170;2022-12-01T11:08:54;5.30;75.50
63445;DHT22;49573;47.682;9.170;2022-12-01T11:11:42;5.40;75.30
63445;DHT22;49573;47.682;9.170;2022-12-01T11:14:35;5.30;75.50
63445;DHT22;49573;47.682;9.170;2022-12-01T11:17:30;5.40;75.30
63445;DHT22;49573;47.682;9.170;2022-12-01T11:20:32;5.40;75.30
63445;DHT22;49573;47.682;9.170;2022-12-01T11:23:24;5.40;75.10
63445;DHT22;49573;47.682;9.170;2022-12-01T11:26:13;5.40;75.10
63445;DHT22;49573;47.682;9.170;2022-12-01T11:29:04;5.40;74.70
63445;DHT22;49573;47.682;9.170;2022-12-01T11:31:51;5.40;74.80
63445;DHT22;49573;47.682;9.170;2022-12-01T11:34:38;5.50;75.40
63445;DHT22;49573;47.682;9.170;2022-12-01T11:37:27;5.50;74.90
63445;DHT22;49573;47.682;9.170;2022-12-01T11:40:19;5.40;74.60
63445;DHT22;49573;47.682;9.170;2022-12-01T11:43:06;5.50;74.50
63445;DHT22;49573;47.682;9.170;2022-12-01T11:45:55;5.40;74.80
63445;DHT22;49573;47.682;9.170;2022-12-01T11:48:56;5.50;74.70
63445;DHT22;49573;47.682;9.170;2022-12-01T11:51:42;5.40;74.60
63445;DHT22;49573;47.682;9.170;2022-12-01T11:54:28;5.50;74.80
63445;DHT22;49573;47.682;9.170;2022-12-01T11:57:14;5.50;75.00
63445;DHT22;49573;47.682;9.170;2022-12-01T12:00:01;5.50;74.40
63445;DHT22;49573;47.682;9.170;2022-12-01T12:02:54;5.50;74.40
63445;DHT22;49573;47.682;9.170;2022-12-01T12:05:55;5.40;74.40
63445;DHT22;49573;47.682;9.170;2022-12-01T12:08:51;5.50;74.20
63445;DHT22;49573;47.682;9.170;2022-12-01T12:11:49;5.50;74.10
63445;DHT22;49573;47.682;9.170;2022-12-01T12:14:44;5.50;74.10
63445;DHT22;49573;47.682;9.170;2022-12-01T12:17:46;5.40;74.30
63445;DHT22;49573;47.682;9.170;2022-12-01T12:20:44;5.40;74.40
63445;DHT22;49573;47.682;9.170;2022-12-01T12:24:00;5.50;74.10
63445;DHT22;49573;47.682;9.170;2022-12-01T12:26:53;5.40;74.20
63445;DHT22;49573;47.682;9.170;2022-12-01T12:29:55;5.40;74.30
63445;DHT22;49573;47.682;9.170;2022-12-01T12:32:56;5.40;74.70
63445;DHT22;49573;47.682;9.170;2022-12-01T12:35:55;5.50;74.50
63445;DHT22;49573;47.682;9.170;2022-12-01T12:38:56;5.50;74.30
63445;DHT22;49573;47.682;9.170;2022-12-01T12:41:47;5.50;74.70
63445;DHT22;49573;47.682;9.170;2022-12-01T12:44:47;5.50;74.30
63445;DHT22;49573;47.682;9.170;2022-12-01T12:47:44;5.50;74.90
63445;DHT22;49573;47.682;9.170;2022-12-01T12:50:38;5.50;74.10
63445;DHT22;49573;47.682;9.170;2022-12-01T12:53:43;5.50;74.60
63445;DHT22;49573;47.682;9.170;2022-12-01T12:56:33;5.50;74.30
63445;DHT22;49573;47.682;9.170;2022-12-01T12:59:24;5.50;74.30
63445;DHT22;49573;47.682;9.170;2022-12-01T13:02:14;5.50;73.90
63445;DHT22;49573;47.682;9.170;2022-12-01T13:05:05;5.60;73.90
63445;DHT22;49573;47.682;9.170;2022-12-01T13:07:57;5.50;73.60
63445;DHT22;49573;47.682;9.170;2022-12-01T13:10:47;5.50;73.70
63445;DHT22;49573;47.682;9.170;2022-12-01T13:13:39;5.70;74.10
63445;DHT22;49573;47.682;9.170;2022-12-01T13:16:30;5.60;73.50
63445;DHT22;49573;47.682;9.170;2022-12-01T13:19:21;5.60;74.00
63445;DHT22;49573;47.682;9.170;2022-12-01T13:22:11;5.70;73.70
63445;DHT22;49573;47.682;9.170;2022-12-01T13:24:58;5.70;73.60
63445;DHT22;49573;47.682;9.170;2022-12-01T13:27:46;5.60;73.60
63445;DHT22;49573;47.682;9.170;2022-12-01T13:30:34;5.70;74.10
63445;DHT22;49573;47.682;9.170;2022-12-01T13:33:21;5.70;73.80
63445;DHT22;49573;47.682;9.170;2022-12-01T13:36:09;5.70;73.40
63445;DHT22;49573;47.682;9.170;2022-12-01T13:38:58;5.60;73.80
63445;DHT22;49573;47.682;9.170;2022-12-01T13:41:45;5.60;73.60
63445;DHT22;49573;47.682;9.170;2022-12-01T13:44:44;5.70;74.30
63445;DHT22;49573;47.682;9.170;2022-12-01T13:47:37;5.70;73.90
63445;DHT22;49573;47.682;9.170;2022-12-01T13:53:38;5.70;73.70
63445;DHT22;49573;47.682;9.170;2022-12-01T13:56:44;5.60;73.50
63445;DHT22;49573;47.682;9.170;2022-12-01T14:03:31;5.70;73.80
63445;DHT22;49573;47.682;9.170;2022-12-01T14:06:26;5.60;73.60
63445;DHT22;49573;47.682;9.170;2022-12-01T14:09:16;5.60;73.80
63445;DHT22;49573;47.682;9.170;2022-12-01T14:12:14;5.60;73.80
63445;DHT22;49573;47.682;9.170;2022-12-01T14:15:04;5.60;73.70
63445;DHT22;49573;47.682;9.170;2022-12-01T14:18:14;5.60;73.90
63445;DHT22;49573;47.682;9.170;2022-12-01T14:21:06;5.50;73.60
63445;DHT22;49573;47.682;9.170;2022-12-01T14:24:00;5.60;73.80
63445;DHT22;49573;47.682;9.170;2022-12-01T14:26:47;5.50;73.70
63445;DHT22;49573;47.682;9.170;2022-12-01T14:29:35;5.50;73.70
63445;DHT22;49573;47.682;9.170;2022-12-01T14:32:28;5.50;73.50
63445;DHT22;49573;47.682;9.170;2022-12-01T14:35:15;5.50;73.40
63445;DHT22;49573;47.682;9.170;2022-12-01T14:38:03;5.50;73.90
63445;DHT22;49573;47.682;9.170;2022-12-01T14:40:50;5.50;73.90
63445;DHT22;49573;47.682;9.170;2022-12-01T14:43:37;5.40;73.40
63445;DHT22;49573;47.682;9.170;2022-12-01T14:46:53;5.50;73.50
63445;DHT22;49573;47.682;9.170;2022-12-01T14:49:42;5.40;74.10
63445;DHT22;49573;47.682;9.170;2022-12-01T14:52:34;5.40;74.20
63445;DHT22;49573;47.682;9.170;2022-12-01T14:55:23;5.40;74.40
63445;DHT22;49573;47.682;9.170;2022-12-01T14:58:15;5.40;74.20
63445;DHT22;49573;47.682;9.170;2022-12-01T15:01:04;5.40;74.40
63445;DHT22;49573;47.682;9.170;2022-12-01T15:03:55;5.40;74.30
63445;DHT22;49573;47.682;9.170;2022-12-01T15:06:43;5.30;74.40
63445;DHT22;49573;47.682;9.170;2022-12-01T15:09:30;5.30;74.80
63445;DHT22;49573;47.682;9.170;2022-12-01T15:12:25;5.30;74.80
63445;DHT22;49573;47.682;9.170;2022-12-01T15:15:16;5.30;74.90
63445;DHT22;49573;47.682;9.170;2022-12-01T15:18:20;5.30;75.00
63445;DHT22;49573;47.682;9.170;2022-12-01T15:21:09;5.30;74.70
63445;DHT22;49573;47.682;9.170;2022-12-01T15:24:00;5.20;74.70
63445;DHT22;49573;47.682;9.170;2022-12-01T15:26:48;5.20;74.90
63445;DHT22;49573;47.682;9.170;2022-12-01T15:29:39;5.20;75.20
63445;DHT22;49573;47.682;9.170;2022-12-01T15:32:28;5.20;75.00
63445;DHT22;49573;47.682;9.170;2022-12-01T15:35:17;5.20;75.00
63445;DHT22;49573;47.682;9.170;2022-12-01T15:38:04;5.20;75.30
63445;DHT22;49573;47.682;9.170;2022-12-01T15:40:52;5.20;75.20
63445;DHT22;49573;47.682;9.170;2022-12-01T15:43:39;5.20;75.10
63445;DHT22;49573;47.682;9.170;2022-12-01T15:46:27;5.20;75.20
63445;DHT22;49573;47.682;9.170;2022-12-01T15:49:17;5.20;75.20
63445;DHT22;49573;47.682;9.170;2022-12-01T15:52:06;5.20;75.30
63445;DHT22;49573;47.682;9.170;2022-12-01T15:54:53;5.10;75.30
63445;DHT22;49573;47.682;9.170;2022-12-01T15:57:45;5.10;75.20
63445;DHT22;49573;47.682;9.170;2022-12-01T16:00:31;5.10;75.40
63445;DHT22;49573;47.682;9.170;2022-12-01T16:03:17;5.10;75.30
63445;DHT22;49573;47.682;9.170;2022-12-01T16:06:04;5.10;76.20
63445;DHT22;49573;47.682;9.170;2022-12-01T16:08:57;5.20;76.40
63445;DHT22;49573;47.682;9.170;2022-12-01T16:12:03;5.20;76.20
63445;DHT22;49573;47.682;9.170;2022-12-01T16:14:54;5.20;77.20
63445;DHT22;49573;47.682;9.170;2022-12-01T16:17:42;5.20;77.10
63445;DHT22;49573;47.682;9.170;2022-12-01T16:20:32;5.20;77.50
63445;DHT22;49573;47.682;9.170;2022-12-01T16:23:22;5.20;76.10
63445;DHT22;49573;47.682;9.170;2022-12-01T16:26:08;5.20;77.00
63445;DHT22;49573;47.682;9.170;2022-12-01T16:28:55;5.20;76.60
63445;DHT22;49573;47.682;9.170;2022-12-01T16:31:42;5.20;75.90
63445;DHT22;49573;47.682;9.170;2022-12-01T16:34:29;5.20;75.80
63445;DHT22;49573;47.682;9.170;2022-12-01T16:37:15;5.20;75.60
63445;DHT22;49573;47.682;9.170;2022-12-01T16:40:04;5.20;76.40
63445;DHT22;49573;47.682;9.170;2022-12-01T16:42:50;5.10;76.90
63445;DHT22;49573;47.682;9.170;2022-12-01T16:45:36;5.20;76.80
63445;DHT22;49573;47.682;9.170;2022-12-01T16:48:23;5.20;77.00
63445;DHT22;49573;47.682;9.170;2022-12-01T16:51:12;5.20;77.00
63445;DHT22;49573;47.682;9.170;2022-12-01T16:53:59;5.20;77.40
63445;DHT22;49573;47.682;9.170;2022-12-01T16:56:45;5.20;77.60
63445;DHT22;49573;47.682;9.170;2022-12-01T16:59:31;5.20;77.70
63445;DHT22;49573;47.682;9.170;2022-12-01T17:02:17;5.20;76.90
63445;DHT22;49573;47.682;9.170;2022-12-01T17:05:05;5.10;77.90
63445;DHT22;49573;47.682;9.170;2022-12-01T17:07:51;5.20;78.00
63445;DHT22;49573;47.682;9.170;2022-12-01T17:10:38;5.20;77.70
63445;DHT22;49573;47.682;9.170;2022-12-01T17:13:24;5.20;78.50
63445;DHT22;49573;47.682;9.170;2022-12-01T17:16:10;5.20;78.30
63445;DHT22;49573;47.682;9.170;2022-12-01T17:18:58;5.20;78.70
63445;DHT22;49573;47.682;9.170;2022-12-01T17:21:46;5.10;78.30
63445;DHT22;49573;47.682;9.170;2022-12-01T17:24:32;5.10;78.30
63445;DHT22;49573;47.682;9.170;2022-12-01T17:27:18;5.10;78.30
63445;DHT22;49573;47.682;9.170;2022-12-01T17:30:05;5.10;78.30
63445;DHT22;49573;47.682;9.170;2022-12-01T17:32:51;5.10;78.80
63445;DHT22;49573;47.682;9.170;2022-12-01T17:35:38;5.10;78.70
63445;DHT22;49573;47.682;9.170;2022-12-01T17:38:25;5.10;79.00
63445;DHT22;49573;47.682;9.170;2022-12-01T17:41:13;5.10;78.90
63445;DHT22;49573;47.682;9.170;2022-12-01T17:44:01;5.10;78.90
63445;DHT22;49573;47.682;9.170;2022-12-01T17:46:47;5.10;78.90
63445;DHT22;49573;47.682;9.170;2022-12-01T17:49:34;5.10;79.30
63445;DHT22;49573;47.682;9.170;2022-12-01T17:52:20;5.10;78.40
63445;DHT22;49573;47.682;9.170;2022-12-01T17:55:08;5.10;78.50
63445;DHT22;49573;47.682;9.170;2022-12-01T17:57:54;5.10;79.10
63445;DHT22;49573;47.682;9.170;2022-12-01T18:00:43;5.10;79.00
63445;DHT22;49573;47.682;9.170;2022-12-01T18:03:29;5.10;79.20
63445;DHT22;49573;47.682;9.170;2022-12-01T18:06:16;5.10;79.20
63445;DHT22;49573;47.682;9.170;2022-12-01T18:09:03;5.10;78.90
63445;DHT22;49573;47.682;9.170;2022-12-01T18:11:53;5.10;79.00
63445;DHT22;49573;47.682;9.170;2022-12-01T18:14:40;5.10;78.60
63445;DHT22;49573;47.682;9.170;2022-12-01T18:17:26;5.10;78.90